Time;durP1;ratioP1;P1;durP2;ratioP2;P2;SDS_P1;SDS_P2;PMS_P1;PMS_P2;Temp;Humidity;BMP_temperature;BMP_pressure;BME280_temperature;BME280_humidity;BME280_pressure;Samples;Min_cycle;Max_cycle;Signal;HPM_P1;HPM_P2
2022/08/02 00:01:51;;;;;;;3.15;2.00;;;14.60;99.90;;;;;;4998991;28;20049;-79
2022/08/02 00:04:16;;;;;;;1.92;1.50;;;14.60;99.90;;;;;;4977839;28;20433;-79
2022/08/02 00:06:42;;;;;;;4.20;2.65;;;14.60;99.90;;;;;;4978339;28;20046;-79
2022/08/02 00:09:08;;;;;;;2.85;2.22;;;14.50;99.90;;;;;;4979503;28;20026;-79
2022/08/02 00:11:34;;;;;;;3.45;1.70;;;14.50;99.90;;;;;;4979770;28;20046;-79
2022/08/02 00:13:59;;;;;;;3.67;2.60;;;14.50;99.90;;;;;;4979057;28;20042;-79
2022/08/02 00:16:25;;;;;;;2.45;1.60;;;14.50;99.90;;;;;;4978835;28;20117;-78
2022/08/02 00:18:51;;;;;;;3.75;1.60;;;14.40;99.90;;;;;;4979209;28;20241;-79
2022/08/02 00:21:17;;;;;;;1.92;1.83;;;14.40;99.90;;;;;;4978997;28;20477;-79
2022/08/02 00:23:43;;;;;;;4.30;1.70;;;14.40;99.90;;;;;;4960333;28;20074;-79
2022/08/02 00:26:08;;;;;;;3.78;1.88;;;14.40;99.90;;;;;;4962112;28;20451;-79
2022/08/02 00:28:34;;;;;;;6.57;2.35;;;14.40;99.90;;;;;;4978887;28;20030;-79
2022/08/02 00:31:00;;;;;;;4.60;1.77;;;14.40;99.90;;;;;;4961440;28;20054;-79
2022/08/02 00:33:26;;;;;;;3.85;1.67;;;14.40;99.90;;;;;;4978911;28;21260;-79
2022/08/02 00:35:52;;;;;;;4.45;1.83;;;14.40;99.90;;;;;;4978655;28;20410;-78
2022/08/02 00:38:17;;;;;;;2.10;1.92;;;14.40;99.90;;;;;;4978259;28;20640;-79
2022/08/02 00:40:51;;;;;;;2.05;1.85;;;14.40;99.90;;;;;;4979181;28;20050;-78
2022/08/02 00:43:17;;;;;;;5.72;2.17;;;14.50;99.90;;;;;;4979251;28;20078;-79
2022/08/02 00:45:43;;;;;;;7.65;2.42;;;14.50;99.90;;;;;;4978915;28;20365;-79
2022/08/02 00:48:10;;;;;;;2.13;1.92;;;14.50;99.90;;;;;;4978554;28;20093;-79
2022/08/02 00:50:37;;;;;;;4.85;2.83;;;14.50;99.90;;;;;;4961867;28;20122;-79
2022/08/02 00:53:03;;;;;;;10.85;2.67;;;14.50;99.90;;;;;;4978448;28;20133;-79
2022/08/02 00:55:29;;;;;;;7.40;3.45;;;14.50;99.90;;;;;;4978531;28;20042;-79
2022/08/02 00:57:55;;;;;;;2.63;2.13;;;14.50;99.90;;;;;;4961589;28;20370;-79
2022/08/02 01:00:21;;;;;;;6.68;3.13;;;14.50;99.90;;;;;;4978769;28;20104;-79
2022/08/02 01:02:46;;;;;;;5.97;2.50;;;14.50;99.90;;;;;;4965118;28;20050;-79
2022/08/02 01:05:13;;;;;;;3.40;2.58;;;14.50;99.90;;;;;;4998130;28;20592;-79
2022/08/02 01:07:38;;;;;;;4.63;2.80;;;14.50;99.90;;;;;;4979683;28;20052;-78
2022/08/02 01:10:05;;;;;;;6.05;2.88;;;14.50;99.90;;;;;;5058422;23;20523;-78
2022/08/02 01:12:31;;;;;;;4.05;2.10;;;14.40;99.90;;;;;;5057889;28;20136;-78
2022/08/02 01:15:00;;;;;;;4.28;1.90;;;14.40;99.90;;;;;;5043224;28;20100;-79
2022/08/02 01:17:33;;;;;;;5.35;2.50;;;14.40;99.90;;;;;;5051470;28;20130;-79
2022/08/02 01:20:07;;;;;;;4.28;2.33;;;14.40;99.90;;;;;;5057681;28;20670;-79
2022/08/02 01:22:55;;;;;;;2.08;1.88;;;14.30;99.90;;;;;;5038449;28;20062;-79
2022/08/02 01:25:32;;;;;;;3.25;1.98;;;14.30;99.90;;;;;;5057697;28;20268;-79
2022/08/02 01:28:54;;;;;;;9.52;2.92;;;14.30;99.90;;;;;;5057247;28;20037;-78
2022/08/02 01:31:31;;;;;;;3.00;2.07;;;14.30;99.90;;;;;;4956329;28;20049;-79
2022/08/02 01:34:23;;;;;;;2.70;1.85;;;14.30;99.90;;;;;;4956477;28;20294;-78
2022/08/02 01:37:02;;;;;;;4.72;2.40;;;14.30;99.90;;;;;;5043249;28;20052;-79
2022/08/02 01:39:32;;;;;;;5.35;2.92;;;14.20;99.90;;;;;;5057303;28;20537;-79
2022/08/02 01:42:00;;;;;;;3.53;2.40;;;14.20;99.90;;;;;;5057508;28;20044;-79
2022/08/02 01:44:30;;;;;;;5.40;3.03;;;14.20;99.90;;;;;;5057460;28;20079;-79
2022/08/02 01:46:59;;;;;;;2.65;2.05;;;14.20;99.90;;;;;;5047329;28;20123;-78
2022/08/02 01:49:28;;;;;;;9.13;2.60;;;14.20;99.90;;;;;;5046904;28;20373;-78
2022/08/02 01:54:41;;;;;;;6.93;2.42;;;14.10;99.90;;;;;;5061647;28;20131;-79
2022/08/02 01:57:09;;;;;;;3.97;1.98;;;14.10;99.90;;;;;;5043519;28;20052;-79
2022/08/02 01:59:36;;;;;;;4.65;3.03;;;14.00;99.90;;;;;;5061010;28;20040;-79
2022/08/02 02:02:07;;;;;;;5.57;2.63;;;14.00;99.90;;;;;;5060981;28;20076;-79
2022/08/02 02:04:35;;;;;;;2.10;1.83;;;14.00;99.90;;;;;;5060715;28;20059;-79
2022/08/02 02:07:02;;;;;;;3.15;2.50;;;14.00;99.90;;;;;;5059810;28;20040;-79
2022/08/02 02:09:30;;;;;;;3.55;2.58;;;13.90;99.90;;;;;;5060076;28;20044;-79
2022/08/02 02:11:59;;;;;;;2.42;1.92;;;13.90;99.90;;;;;;5061151;28;20640;-78
2022/08/02 02:14:26;;;;;;;4.07;2.28;;;13.90;99.90;;;;;;5060854;28;20087;-78
2022/08/02 02:16:54;;;;;;;4.22;3.17;;;13.90;99.90;;;;;;5060310;28;20044;-79
2022/08/02 02:19:21;;;;;;;4.20;2.58;;;13.80;99.90;;;;;;5060389;28;20032;-78
2022/08/02 02:21:46;;;;;;;5.40;2.63;;;13.90;99.90;;;;;;5060025;28;20351;-79
2022/08/02 02:24:12;;;;;;;4.22;2.10;;;13.90;99.90;;;;;;5060326;28;20383;-79
2022/08/02 02:26:40;;;;;;;8.68;2.47;;;13.90;99.90;;;;;;5043191;28;20071;-79
2022/08/02 02:29:08;;;;;;;3.83;2.25;;;13.90;99.90;;;;;;5042735;28;20041;-79
2022/08/02 02:31:37;;;;;;;5.25;2.75;;;13.90;99.90;;;;;;5060049;28;20041;-79
2022/08/02 02:34:13;;;;;;;2.65;2.25;;;13.80;99.90;;;;;;5051940;28;20063;-79
2022/08/02 02:36:44;;;;;;;1.90;1.80;;;13.90;99.90;;;;;;5059356;28;20095;-79
2022/08/02 02:39:13;;;;;;;2.40;2.20;;;13.90;99.90;;;;;;5060892;28;20127;-79
2022/08/02 02:41:41;;;;;;;2.20;2.00;;;13.90;99.90;;;;;;5060678;28;20313;-78
2022/08/02 02:44:10;;;;;;;4.70;2.78;;;13.80;99.90;;;;;;5060381;28;20032;-79
2022/08/02 02:46:36;;;;;;;3.88;1.92;;;13.80;99.90;;;;;;5060041;28;20047;-79
2022/08/02 02:49:02;;;;;;;6.22;2.95;;;13.90;99.90;;;;;;5059868;28;20044;-79
2022/08/02 02:51:29;;;;;;;2.10;1.70;;;13.90;99.90;;;;;;5059481;28;20055;-79
2022/08/02 02:53:56;;;;;;;2.75;1.85;;;13.80;99.90;;;;;;5060211;28;20045;-79
2022/08/02 02:56:22;;;;;;;5.32;2.35;;;13.80;99.90;;;;;;5058832;28;20041;-79
2022/08/02 02:58:48;;;;;;;2.67;1.95;;;13.80;99.90;;;;;;5060010;28;20106;-78
2022/08/02 03:01:27;;;;;;;2.97;2.28;;;13.80;99.90;;;;;;5060490;28;20040;-79
2022/08/02 03:03:54;;;;;;;4.43;2.08;;;13.80;99.90;;;;;;5059587;28;20937;-79
2022/08/02 03:06:20;;;;;;;4.13;2.63;;;13.70;99.90;;;;;;5058853;28;20047;-78
2022/08/02 03:08:46;;;;;;;3.70;2.47;;;13.70;99.90;;;;;;5064897;28;20063;-79
2022/08/02 03:11:12;;;;;;;5.75;2.50;;;13.70;99.90;;;;;;5079988;28;20047;-78
2022/08/02 03:13:39;;;;;;;5.68;2.83;;;13.80;99.90;;;;;;5079894;28;20139;-78
2022/08/02 03:16:05;;;;;;;2.53;2.33;;;13.80;99.90;;;;;;5061319;28;20043;-78
2022/08/02 03:18:35;;;;;;;3.00;2.17;;;13.70;99.90;;;;;;5079667;28;20414;-78
2022/08/02 03:21:10;;;;;;;4.25;2.42;;;13.70;99.90;;;;;;5079364;28;20115;-79
2022/08/02 03:23:36;;;;;;;5.93;2.65;;;13.70;99.90;;;;;;5078956;28;20055;-79
2022/08/02 03:26:02;;;;;;;3.40;2.50;;;13.70;99.90;;;;;;5061492;28;20044;-78
2022/08/02 03:28:28;;;;;;;5.18;2.17;;;13.70;99.90;;;;;;5079320;28;20093;-79
2022/08/02 03:30:54;;;;;;;3.35;2.28;;;13.70;99.90;;;;;;5079205;28;20048;-78
2022/08/02 03:33:20;;;;;;;5.28;2.95;;;13.70;99.90;;;;;;5079395;28;20028;-79
2022/08/02 03:35:48;;;;;;;2.67;2.05;;;13.80;99.90;;;;;;5079361;28;20048;-79
2022/08/02 03:38:17;;;;;;;3.42;2.33;;;13.70;99.90;;;;;;5078424;28;20040;-79
2022/08/02 03:40:44;;;;;;;5.85;1.95;;;13.80;99.90;;;;;;5079454;28;20051;-79
2022/08/02 03:43:10;;;;;;;3.25;2.42;;;13.80;99.90;;;;;;5078948;28;20042;-78
2022/08/02 03:45:38;;;;;;;5.90;3.08;;;13.80;99.90;;;;;;5079167;28;20039;-79
2022/08/02 03:48:04;;;;;;;5.00;3.05;;;13.80;99.90;;;;;;5078829;28;20115;-79
2022/08/02 03:50:32;;;;;;;5.95;2.65;;;13.80;99.90;;;;;;5060442;28;20509;-79
2022/08/02 03:52:58;;;;;;;2.55;1.83;;;13.80;99.90;;;;;;5078347;28;20589;-78
2022/08/02 03:55:23;;;;;;;2.67;1.90;;;13.80;99.90;;;;;;5078939;28;20071;-80
2022/08/02 03:57:49;;;;;;;3.15;2.47;;;13.80;99.90;;;;;;5078699;28;20666;-79
2022/08/02 04:00:20;;;;;;;2.88;2.05;;;13.80;99.90;;;;;;5061051;28;20064;-79
2022/08/02 04:02:46;;;;;;;3.15;2.85;;;13.70;99.90;;;;;;5060964;28;20052;-79
2022/08/02 04:05:12;;;;;;;7.05;2.33;;;13.70;99.90;;;;;;5078467;28;20048;-79
2022/08/02 04:07:38;;;;;;;4.30;2.65;;;13.80;99.90;;;;;;5077509;28;20051;-78
2022/08/02 04:10:04;;;;;;;2.10;1.83;;;13.70;99.90;;;;;;5078617;28;20399;-78
2022/08/02 04:12:30;;;;;;;3.80;1.83;;;13.70;99.90;;;;;;5060349;28;20565;-78
2022/08/02 04:14:57;;;;;;;2.92;2.47;;;13.70;99.90;;;;;;5060671;28;20036;-79
2022/08/02 04:17:24;;;;;;;2.65;2.35;;;13.70;99.90;;;;;;5078511;28;20047;-79
2022/08/02 04:19:54;;;;;;;4.35;2.17;;;13.70;99.90;;;;;;5078143;28;20051;-78
2022/08/02 04:22:37;;;;;;;6.85;3.63;;;13.60;99.90;;;;;;5077798;28;20043;-79
2022/08/02 04:25:06;;;;;;;8.05;3.00;;;13.70;99.90;;;;;;5078582;28;20075;-79
2022/08/02 04:27:35;;;;;;;2.35;2.15;;;13.70;99.90;;;;;;5060530;28;20051;-78
2022/08/02 04:30:01;;;;;;;6.50;2.30;;;13.80;99.90;;;;;;5078551;28;20039;-79
2022/08/02 04:32:27;;;;;;;3.95;2.63;;;13.80;99.90;;;;;;5078619;28;20038;-79
2022/08/02 04:34:52;;;;;;;2.67;2.08;;;13.80;99.90;;;;;;5078186;28;20413;-78
2022/08/02 04:37:18;;;;;;;6.28;2.45;;;13.80;99.90;;;;;;5078129;28;20051;-78
2022/08/02 04:39:44;;;;;;;4.13;3.08;;;13.90;99.90;;;;;;5078405;28;20324;-79
2022/08/02 04:42:18;;;;;;;4.32;2.72;;;13.90;99.90;;;;;;5078260;28;20461;-79
2022/08/02 04:44:43;;;;;;;8.27;2.63;;;13.90;99.90;;;;;;5077610;28;20052;-79
2022/08/02 04:47:09;;;;;;;3.33;2.33;;;13.90;99.90;;;;;;5078315;28;20044;-79
2022/08/02 04:49:35;;;;;;;5.82;3.08;;;14.00;99.90;;;;;;5078027;28;20051;-78
2022/08/02 04:52:00;;;;;;;4.38;2.55;;;14.00;99.90;;;;;;5077035;28;20123;-79
2022/08/02 04:54:26;;;;;;;3.65;2.33;;;14.00;99.90;;;;;;5078741;28;20089;-79
2022/08/02 04:56:51;;;;;;;4.60;2.13;;;14.00;99.90;;;;;;5078221;28;20482;-78
2022/08/02 04:59:17;;;;;;;5.43;2.53;;;14.00;99.90;;;;;;5078325;28;20040;-80
2022/08/02 05:01:43;;;;;;;5.85;2.38;;;14.00;99.90;;;;;;5078011;28;20458;-79
2022/08/02 05:04:08;;;;;;;4.35;2.92;;;14.00;99.90;;;;;;5077875;28;20126;-78
2022/08/02 05:06:34;;;;;;;7.15;2.63;;;14.00;99.90;;;;;;5076850;28;20070;-78
2022/08/02 05:08:59;;;;;;;3.00;2.10;;;14.10;99.90;;;;;;5077779;28;20533;-79
2022/08/02 05:11:25;;;;;;;9.05;2.22;;;14.00;99.90;;;;;;5078280;28;20377;-79
2022/08/02 05:13:51;;;;;;;3.25;2.22;;;14.00;99.90;;;;;;5077875;28;20036;-79
2022/08/02 05:16:16;;;;;;;4.57;2.88;;;14.00;99.90;;;;;;5077824;28;20040;-78
2022/08/02 05:18:42;;;;;;;3.40;2.05;;;14.10;99.90;;;;;;5078247;28;20242;-78
2022/08/02 05:21:08;;;;;;;4.18;2.60;;;14.10;99.90;;;;;;5079615;28;20425;-79
2022/08/02 05:23:34;;;;;;;7.07;2.78;;;14.10;99.90;;;;;;5063336;28;20048;-78
2022/08/02 05:26:00;;;;;;;8.70;2.88;;;14.20;99.90;;;;;;5063746;28;20269;-79
2022/08/02 05:28:25;;;;;;;7.38;2.35;;;14.20;99.90;;;;;;5081304;28;20036;-79
2022/08/02 05:30:51;;;;;;;3.42;2.70;;;14.30;99.90;;;;;;5064016;28;20048;-78
2022/08/02 05:33:17;;;;;;;3.50;2.17;;;14.40;99.90;;;;;;5063436;28;20397;-78
2022/08/02 05:35:42;;;;;;;4.88;2.67;;;14.40;99.90;;;;;;5080217;28;20036;-79
2022/08/02 05:38:08;;;;;;;3.95;2.45;;;14.50;99.90;;;;;;5081413;28;20347;-79
2022/08/02 05:40:34;;;;;;;2.58;1.70;;;14.60;99.90;;;;;;5081685;28;20257;-79
2022/08/02 05:42:59;;;;;;;3.20;2.38;;;14.80;99.90;;;;;;5081340;28;20032;-79
2022/08/02 05:45:25;;;;;;;3.20;2.90;;;14.90;99.90;;;;;;5081610;28;20302;-79
2022/08/02 05:47:51;;;;;;;4.40;2.88;;;14.90;99.90;;;;;;5063671;28;20044;-78
2022/08/02 05:50:17;;;;;;;3.33;1.55;;;15.10;99.90;;;;;;5062546;28;20046;-79
2022/08/02 05:52:56;;;;;;;5.60;1.40;;;15.20;99.90;;;;;;5080375;28;20044;-78
2022/08/02 05:55:30;;;;;;;3.25;2.58;;;15.30;99.90;;;;;;5081172;28;20135;-79
2022/08/02 05:58:10;;;;;;;4.07;3.03;;;15.40;99.90;;;;;;5063372;28;20075;-79
2022/08/02 06:00:39;;;;;;;4.47;2.85;;;15.40;99.90;;;;;;5081471;28;20048;-79
2022/08/02 06:03:18;;;;;;;3.35;2.55;;;15.50;99.90;;;;;;5080932;28;20033;-80
2022/08/02 06:06:16;;;;;;;4.22;2.83;;;15.50;99.90;;;;;;5080173;28;20608;-79
2022/08/02 06:08:49;;;;;;;6.70;2.90;;;15.60;99.90;;;;;;5060979;28;20048;-79
2022/08/02 06:11:19;;;;;;;9.80;2.40;;;15.60;99.90;;;;;;5080520;28;20064;-79
2022/08/02 06:13:45;;;;;;;7.30;2.70;;;15.70;99.90;;;;;;5081286;28;20039;-79
2022/08/02 06:16:12;;;;;;;14.15;2.83;;;15.70;99.90;;;;;;5062922;28;20040;-79
2022/08/02 06:18:40;;;;;;;2.80;2.30;;;15.70;99.90;;;;;;5080925;28;20494;-79
2022/08/02 06:21:07;;;;;;;3.97;2.25;;;15.70;99.90;;;;;;5079907;28;20115;-78
2022/08/02 06:23:35;;;;;;;4.00;3.50;;;15.80;99.90;;;;;;5080373;28;20067;-79
2022/08/02 06:26:01;;;;;;;10.02;2.75;;;15.80;99.90;;;;;;5080676;28;20048;-79
2022/08/02 06:28:29;;;;;;;2.25;1.98;;;15.80;99.90;;;;;;5080423;28;20096;-79
2022/08/02 06:30:55;;;;;;;3.92;2.92;;;15.80;99.90;;;;;;5080531;28;20382;-79
2022/08/02 06:33:22;;;;;;;4.70;3.15;;;15.80;99.90;;;;;;5080878;28;20457;-79
2022/08/02 06:36:00;;;;;;;4.93;2.25;;;15.90;99.90;;;;;;5079336;28;20192;-79
2022/08/02 06:38:31;;;;;;;5.85;2.28;;;16.00;99.90;;;;;;5080180;28;20040;-79
2022/08/02 06:41:09;;;;;;;2.38;2.15;;;16.00;99.90;;;;;;5062953;28;20335;-79
2022/08/02 06:43:52;;;;;;;8.05;2.20;;;16.10;99.90;;;;;;5062160;28;20149;-79
2022/08/02 06:46:18;;;;;;;6.60;2.30;;;16.20;99.90;;;;;;5080202;28;20058;-79
2022/08/02 06:48:44;;;;;;;5.53;2.90;;;16.30;99.90;;;;;;5079953;28;20048;-80
2022/08/02 06:51:10;;;;;;;2.95;2.35;;;16.40;99.90;;;;;;5079665;28;20521;-79
2022/08/02 06:53:35;;;;;;;2.63;1.80;;;16.40;99.90;;;;;;5079923;28;20257;-79
2022/08/02 06:56:01;;;;;;;3.63;2.03;;;16.40;99.90;;;;;;5079613;28;20042;-80
2022/08/02 06:58:27;;;;;;;4.82;2.00;;;16.40;99.90;;;;;;5080247;28;20067;-79
2022/08/02 07:00:53;;;;;;;6.57;2.08;;;16.40;99.90;;;;;;5079909;28;20105;-79
2022/08/02 07:03:18;;;;;;;1.50;1.27;;;16.50;99.90;;;;;;5079356;28;20051;-79
2022/08/02 07:05:47;;;;;;;3.10;2.22;;;16.50;99.90;;;;;;5079037;28;20055;-79
2022/08/02 07:08:16;;;;;;;2.22;1.70;;;16.50;99.90;;;;;;5079569;28;20344;-79
2022/08/02 07:10:42;;;;;;;4.85;2.22;;;16.60;99.90;;;;;;5079144;28;20047;-79
2022/08/02 07:13:07;;;;;;;3.05;1.60;;;16.70;99.90;;;;;;5079579;28;20627;-79
2022/08/02 07:15:33;;;;;;;2.80;1.63;;;16.80;99.90;;;;;;5079876;28;20090;-79
2022/08/02 07:17:58;;;;;;;2.65;1.90;;;16.90;99.90;;;;;;5079479;28;20632;-79
2022/08/02 07:20:24;;;;;;;2.10;1.52;;;17.00;99.90;;;;;;5060798;28;20040;-79
2022/08/02 07:22:50;;;;;;;7.22;2.67;;;17.00;99.90;;;;;;5079589;28;20116;-79
2022/08/02 07:25:15;;;;;;;1.73;1.50;;;17.10;99.90;;;;;;5078936;28;20043;-79
2022/08/02 07:27:41;;;;;;;3.35;2.30;;;17.20;99.90;;;;;;5060967;28;20437;-78
2022/08/02 07:30:07;;;;;;;3.80;2.53;;;17.20;99.90;;;;;;5079486;28;20068;-79
2022/08/02 07:32:33;;;;;;;2.50;2.28;;;17.30;99.90;;;;;;5078796;28;20048;-80
2022/08/02 07:35:00;;;;;;;6.28;2.40;;;17.40;99.90;;;;;;5079827;28;20043;-79
2022/08/02 07:37:28;;;;;;;2.95;1.80;;;17.50;99.90;;;;;;5078949;28;20348;-79
2022/08/02 07:39:54;;;;;;;4.85;2.25;;;17.50;99.90;;;;;;5078801;28;20035;-79
2022/08/02 07:42:20;;;;;;;3.13;1.98;;;17.60;99.90;;;;;;5078398;28;20124;-79
2022/08/02 07:44:46;;;;;;;3.08;1.73;;;17.70;99.90;;;;;;5079069;28;20631;-79
2022/08/02 07:47:12;;;;;;;9.25;1.80;;;17.70;99.90;;;;;;5060347;28;20386;-79
2022/08/02 07:49:37;;;;;;;5.22;2.17;;;17.80;99.90;;;;;;5079077;28;20039;-79
2022/08/02 07:52:03;;;;;;;1.83;1.52;;;17.90;99.90;;;;;;5078167;28;20040;-79
2022/08/02 07:54:29;;;;;;;2.28;1.63;;;17.90;99.90;;;;;;5079326;28;20067;-79
2022/08/02 07:56:55;;;;;;;3.47;2.25;;;18.00;99.90;;;;;;5078560;28;20044;-79
2022/08/02 07:59:21;;;;;;;4.70;1.80;;;18.00;99.90;;;;;;5078701;28;20313;-79
2022/08/02 08:01:48;;;;;;;8.00;2.70;;;18.00;99.90;;;;;;5078305;28;20036;-79
2022/08/02 08:04:14;;;;;;;4.10;1.90;;;18.10;99.90;;;;;;5078783;28;20612;-79
2022/08/02 08:06:40;;;;;;;2.55;1.73;;;18.10;99.90;;;;;;5059900;28;20047;-79
2022/08/02 08:09:06;;;;;;;1.80;1.52;;;18.20;99.90;;;;;;5059839;28;20052;-79
2022/08/02 08:11:31;;;;;;;3.08;1.90;;;18.20;99.90;;;;;;5078793;28;20106;-79
2022/08/02 08:13:57;;;;;;;9.50;2.60;;;18.30;99.90;;;;;;5060524;28;20055;-79
2022/08/02 08:16:25;;;;;;;3.13;2.33;;;18.40;99.90;;;;;;5060101;28;20699;-79
2022/08/02 08:18:51;;;;;;;5.22;2.10;;;18.50;99.90;;;;;;5078494;28;20040;-79
2022/08/02 08:21:16;;;;;;;5.05;1.90;;;18.60;99.90;;;;;;5078209;28;20044;-79
2022/08/02 08:23:42;;;;;;;2.38;1.88;;;18.70;99.90;;;;;;5059791;28;20040;-79
2022/08/02 08:26:07;;;;;;;3.10;2.20;;;18.80;99.90;;;;;;5078353;28;20135;-80
2022/08/02 08:28:34;;;;;;;3.17;1.83;;;18.80;99.90;;;;;;5078732;28;20121;-79
2022/08/02 08:31:00;;;;;;;5.43;1.85;;;18.90;99.90;;;;;;5078322;28;20232;-79
2022/08/02 08:33:26;;;;;;;2.80;2.33;;;19.00;99.90;;;;;;5078539;28;20309;-79
2022/08/02 08:35:52;;;;;;;3.60;2.08;;;19.00;99.90;;;;;;5077826;28;20171;-79
2022/08/02 08:38:18;;;;;;;4.18;1.98;;;19.10;99.90;;;;;;5078391;28;20098;-79
2022/08/02 08:40:45;;;;;;;7.28;2.58;;;19.10;99.90;;;;;;5078396;28;20044;-79
2022/08/02 08:43:14;;;;;;;2.47;2.20;;;19.20;99.90;;;;;;5060008;28;20110;-79
2022/08/02 08:45:44;;;;;;;13.43;2.58;;;19.30;99.90;;;;;;5078542;28;20086;-79
2022/08/02 08:48:14;;;;;;;3.42;2.38;;;19.30;99.90;;;;;;5078338;28;20359;-79
2022/08/02 08:50:50;;;;;;;3.25;2.03;;;19.40;99.90;;;;;;5076709;28;20069;-80
2022/08/02 08:53:16;;;;;;;2.65;2.03;;;19.50;99.90;;;;;;5078345;28;20036;-79
2022/08/02 08:55:43;;;;;;;2.30;2.00;;;19.60;99.90;;;;;;5063689;28;20102;-79
2022/08/02 08:58:11;;;;;;;5.10;3.00;;;19.70;99.90;;;;;;5082673;28;20040;-80
2022/08/02 09:00:36;;;;;;;15.05;2.92;;;19.70;99.90;;;;;;5064176;28;20490;-80
2022/08/02 09:03:04;;;;;;;4.43;2.67;;;19.80;99.90;;;;;;5082199;28;20434;-79
2022/08/02 09:05:29;;;;;;;3.20;2.90;;;19.80;99.90;;;;;;5081158;28;20479;-79
2022/08/02 09:07:55;;;;;;;5.88;3.65;;;19.90;99.90;;;;;;5082319;28;20097;-79
2022/08/02 09:10:41;;;;;;;5.40;3.25;;;19.90;99.90;;;;;;5081538;28;20131;-79
2022/08/02 09:13:14;;;;;;;3.00;2.53;;;20.00;99.90;;;;;;5063737;28;20409;-79
2022/08/02 09:15:41;;;;;;;2.67;2.45;;;20.00;99.90;;;;;;5063393;28;20048;-79
2022/08/02 09:18:08;;;;;;;5.20;2.47;;;20.10;99.90;;;;;;5082079;28;20040;-79
2022/08/02 09:20:49;;;;;;;5.75;3.05;;;20.10;99.90;;;;;;5063429;28;20044;-79
2022/08/02 09:23:15;;;;;;;3.53;2.60;;;20.20;99.90;;;;;;5063251;28;20645;-79
2022/08/02 09:25:40;;;;;;;4.18;2.75;;;20.30;99.90;;;;;;5081994;28;20036;-79
2022/08/02 09:28:06;;;;;;;4.35;2.90;;;20.40;99.90;;;;;;5081948;28;20047;-79
2022/08/02 09:30:41;;;;;;;4.03;2.70;;;20.50;99.90;;;;;;5082132;28;20221;-79
2022/08/02 09:33:07;;;;;;;4.07;3.58;;;20.60;99.90;;;;;;5082151;28;20036;-79
2022/08/02 09:35:39;;;;;;;6.90;3.78;;;20.70;99.90;;;;;;5080849;28;20526;-80
2022/08/02 09:38:13;;;;;;;4.30;3.67;;;20.70;99.90;;;;;;5063432;28;20047;-78
2022/08/02 09:40:40;;;;;;;4.82;3.33;;;20.80;99.90;;;;;;5081147;28;20135;-78
2022/08/02 09:43:07;;;;;;;5.57;4.53;;;20.80;99.90;;;;;;5081695;28;20126;-78
2022/08/02 09:45:34;;;;;;;4.75;4.28;;;20.90;99.90;;;;;;5082128;28;20317;-78
2022/08/02 09:48:10;;;;;;;4.65;4.03;;;21.00;99.90;;;;;;5081021;28;20344;-78
2022/08/02 09:50:37;;;;;;;5.70;3.90;;;21.00;99.90;;;;;;5080793;28;20836;-78
2022/08/02 09:53:03;;;;;;;5.78;4.10;;;21.00;99.90;;;;;;5080954;28;20036;-78
2022/08/02 09:55:29;;;;;;;8.75;5.47;;;21.00;99.90;;;;;;5081252;28;20044;-78
2022/08/02 09:57:55;;;;;;;4.53;3.70;;;21.00;99.90;;;;;;5081453;28;20054;-78
2022/08/02 10:00:21;;;;;;;6.47;4.78;;;21.10;99.90;;;;;;5080953;28;20072;-78
2022/08/02 10:03:13;;;;;;;6.57;4.40;;;21.10;99.90;;;;;;5081220;28;20040;-78
2022/08/02 10:05:53;;;;;;;6.00;4.13;;;21.10;99.90;;;;;;5056496;28;20048;-78
2022/08/02 10:08:20;;;;;;;7.63;5.53;;;21.20;99.90;;;;;;5080967;28;20387;-78
2022/08/02 10:10:46;;;;;;;6.18;3.95;;;21.30;99.90;;;;;;5080756;28;20040;-78
2022/08/02 10:13:14;;;;;;;6.00;4.10;;;21.40;99.90;;;;;;5081392;28;20031;-79
2022/08/02 10:15:40;;;;;;;9.10;4.43;;;21.40;99.90;;;;;;5080762;28;20132;-78
2022/08/02 10:18:07;;;;;;;8.02;5.93;;;21.50;99.90;;;;;;5080882;28;20271;-79
2022/08/02 10:20:42;;;;;;;12.15;5.80;;;21.60;99.90;;;;;;5061856;28;20036;-78
2022/08/02 10:23:12;;;;;;;7.03;6.30;;;21.60;99.90;;;;;;5062733;28;20056;-78
2022/08/02 10:25:38;;;;;;;13.98;7.05;;;21.70;99.90;;;;;;5080826;28;20036;-79
2022/08/02 10:28:06;;;;;;;9.80;7.28;;;21.70;99.90;;;;;;5080479;28;20047;-78
2022/08/02 10:30:36;;;;;;;8.10;6.38;;;21.80;99.90;;;;;;5080068;28;20044;-78
2022/08/02 10:33:03;;;;;;;9.80;6.38;;;21.80;99.90;;;;;;5062123;28;20513;-78
2022/08/02 10:35:33;;;;;;;11.73;6.75;;;21.90;99.90;;;;;;5079552;28;20336;-78
2022/08/02 10:38:06;;;;;;;11.73;6.53;;;21.90;99.90;;;;;;5080126;28;20040;-78
2022/08/02 10:40:50;;;;;;;10.15;7.45;;;22.00;99.90;;;;;;5080422;28;20032;-79
2022/08/02 10:43:30;;;;;;;11.80;7.43;;;22.00;99.90;;;;;;5080333;28;20036;-79
2022/08/02 10:46:30;;;;;;;9.32;7.05;;;22.10;99.90;;;;;;5080148;28;20044;-80
2022/08/02 10:49:11;;;;;;;9.23;6.88;;;22.10;99.90;;;;;;5080263;28;20486;-79
2022/08/02 10:52:01;;;;;;;8.07;6.87;;;22.10;99.90;;;;;;5061084;28;20048;-80
2022/08/02 10:54:36;;;;;;;11.82;7.10;;;22.20;99.90;;;;;;5061485;28;20301;-80
2022/08/02 10:57:12;;;;;;;11.30;6.38;;;22.20;99.90;;;;;;5079974;28;20212;-79
2022/08/02 10:59:38;;;;;;;8.85;5.85;;;22.20;99.90;;;;;;5062090;28;20044;-80
2022/08/02 11:02:05;;;;;;;11.25;6.80;;;22.20;99.90;;;;;;5061677;28;20042;-80
2022/08/02 11:04:42;;;;;;;7.47;5.80;;;22.20;99.90;;;;;;5079610;28;20123;-80
2022/08/02 11:07:15;;;;;;;7.28;5.05;;;22.20;99.90;;;;;;5079071;28;20131;-79
2022/08/02 11:09:42;;;;;;;10.43;7.68;;;22.20;99.90;;;;;;5080231;28;20648;-79
2022/08/02 11:12:10;;;;;;;15.45;8.98;;;22.20;99.90;;;;;;5080111;28;20047;-80
2022/08/02 11:14:39;;;;;;;8.23;5.70;;;22.20;99.90;;;;;;5079848;28;20032;-80
2022/08/02 11:17:18;;;;;;;14.20;7.90;;;22.30;99.90;;;;;;5060637;28;20044;-80
2022/08/02 11:20:11;;;;;;;11.18;8.05;;;22.30;99.90;;;;;;5060042;28;20134;-79
2022/08/02 11:22:41;;;;;;;10.95;7.13;;;22.40;99.90;;;;;;5078919;28;20233;-80
2022/08/02 11:25:22;;;;;;;7.97;6.18;;;22.40;99.90;;;;;;5061040;28;20059;-79
2022/08/02 11:27:49;;;;;;;8.77;6.85;;;22.40;99.90;;;;;;5060528;28;20052;-80
2022/08/02 11:30:15;;;;;;;12.02;8.00;;;22.40;99.90;;;;;;5079288;28;20068;-79
2022/08/02 11:32:40;;;;;;;10.82;8.05;;;22.40;99.90;;;;;;5079352;28;20513;-80
2022/08/02 11:35:06;;;;;;;9.32;7.45;;;22.40;99.90;;;;;;5077943;28;20036;-80
2022/08/02 11:37:35;;;;;;;13.13;7.30;;;22.40;99.90;;;;;;5079663;28;20115;-80
2022/08/02 11:40:05;;;;;;;9.23;6.68;;;22.30;99.90;;;;;;5078956;28;20545;-79
2022/08/02 11:42:35;;;;;;;8.82;6.95;;;22.30;99.90;;;;;;5079316;28;20058;-80
2022/08/02 11:45:01;;;;;;;7.75;6.38;;;22.30;99.90;;;;;;5079004;28;20036;-80
2022/08/02 11:47:27;;;;;;;10.13;7.13;;;22.30;99.90;;;;;;5079009;28;20084;-80
2022/08/02 11:50:09;;;;;;;12.18;6.65;;;22.30;99.90;;;;;;5077836;28;20356;-80
2022/08/02 11:52:35;;;;;;;;;;;22.40;99.90;;;;;;5079705;28;20126;-80
2022/08/02 11:55:01;;;;;;;11.40;7.50;;;22.30;99.90;;;;;;5078580;28;20503;-79
2022/08/02 11:57:27;;;;;;;7.90;6.00;;;22.30;99.90;;;;;;5078900;28;20258;-80
2022/08/02 11:59:54;;;;;;;11.20;7.70;;;22.30;99.90;;;;;;5078995;28;20040;-80
2022/08/02 12:02:22;;;;;;;8.48;6.85;;;22.30;99.90;;;;;;5078465;28;20097;-80
2022/08/02 12:04:56;;;;;;;9.25;6.32;;;22.30;99.90;;;;;;5077974;28;20085;-80
2022/08/02 12:07:30;;;;;;;9.25;6.13;;;22.30;99.90;;;;;;5079090;28;20044;-81
2022/08/02 12:10:00;;;;;;;12.05;7.43;;;22.20;99.90;;;;;;5060465;28;20472;-80
2022/08/02 12:12:26;;;;;;;14.95;7.50;;;22.20;99.90;;;;;;5060755;28;20591;-80
2022/08/02 12:14:52;;;;;;;8.50;6.35;;;22.20;99.90;;;;;;5078594;28;20044;-80
2022/08/02 12:20:11;;;;;;;9.38;7.75;;;22.20;99.90;;;;;;5077274;28;20048;-80
2022/08/02 12:22:38;;;;;;;9.63;7.13;;;22.20;99.90;;;;;;5060517;28;20047;-80
2022/08/02 12:25:18;;;;;;;7.05;5.60;;;22.20;99.90;;;;;;5060623;28;20040;-80
2022/08/02 12:27:44;;;;;;;7.78;6.82;;;22.10;99.90;;;;;;5078846;28;20044;-80
2022/08/02 12:30:13;;;;;;;10.80;6.78;;;22.10;99.90;;;;;;5078105;28;20177;-80
2022/08/02 12:32:39;;;;;;;11.25;7.20;;;22.10;99.90;;;;;;5078053;28;20089;-80
2022/08/02 12:35:11;;;;;;;10.82;7.05;;;22.10;99.90;;;;;;5077245;28;20040;-81
2022/08/02 12:37:40;;;;;;;12.02;7.00;;;22.20;99.90;;;;;;5078008;28;20044;-80
2022/08/02 12:40:18;;;;;;;12.20;8.02;;;22.20;99.90;;;;;;5078254;28;20047;-80
2022/08/02 12:42:48;;;;;;;10.70;6.43;;;22.20;99.90;;;;;;5078713;28;20052;-80
2022/08/02 12:45:14;;;;;;;7.78;6.30;;;22.30;99.90;;;;;;5078659;28;20123;-80
2022/08/02 12:47:48;;;;;;;10.45;7.20;;;22.30;99.90;;;;;;5078256;28;20043;-80
2022/08/02 12:50:15;;;;;;;10.18;7.15;;;22.30;99.90;;;;;;5077281;28;20040;-80
2022/08/02 12:52:41;;;;;;;10.60;7.38;;;22.40;99.90;;;;;;5078154;28;20097;-80
2022/08/02 12:55:27;;;;;;;11.38;7.65;;;22.40;99.90;;;;;;5078040;28;20119;-80
2022/08/02 12:58:03;;;;;;;8.00;5.95;;;22.50;99.90;;;;;;5060312;28;20135;-80
2022/08/02 13:00:31;;;;;;;11.93;6.25;;;22.50;99.90;;;;;;5078391;28;20044;-80